Time;durP1;ratioP1;P1;durP2;ratioP2;P2;SDS_P1;SDS_P2;PMS_P1;PMS_P2;Temp;Humidity;BMP_temperature;BMP_pressure;BME280_temperature;BME280_humidity;BME280_pressure;Samples;Min_cycle;Max_cycle;Signal;HPM_P1;HPM_P2
2022/08/06 00:00:18;;;;;;;12.20;11.00;;;;;;;20.55;100.00;99794.88;1641584;87;21033;-76
2022/08/06 00:02:44;;;;;;;11.75;10.63;;;;;;;20.39;100.00;99788.44;1665379;85;22227;-74
2022/08/06 00:05:14;;;;;;;12.43;10.70;;;;;;;20.29;100.00;99795.48;1663951;85;21013;-76
2022/08/06 00:07:41;;;;;;;12.73;11.45;;;;;;;20.25;100.00;99796.42;1660213;85;21055;-74
2022/08/06 00:10:09;;;;;;;13.70;12.25;;;;;;;20.20;100.00;99782.89;1699868;83;21160;-72
2022/08/06 00:12:37;;;;;;;12.82;11.30;;;;;;;20.14;100.00;99790.98;1707341;84;21009;-75
2022/08/06 00:15:06;;;;;;;11.80;10.32;;;;;;;20.11;100.00;99788.86;1678817;84;21065;-74
2022/08/06 00:17:32;;;;;;;12.33;11.12;;;;;;;20.13;100.00;99791.55;1669627;83;22244;-76
2022/08/06 00:20:00;;;;;;;12.20;10.93;;;;;;;20.12;100.00;99790.47;1671972;85;21084;-74
2022/08/06 00:22:28;;;;;;;11.78;10.72;;;;;;;20.07;100.00;99793.33;1642699;86;21154;-77
2022/08/06 00:24:56;;;;;;;12.13;10.98;;;;;;;20.05;100.00;99794.22;1660978;85;20992;-76
2022/08/06 00:27:22;;;;;;;10.43;9.43;;;;;;;20.06;100.00;99802.08;1674514;84;21580;-75
2022/08/06 00:29:50;;;;;;;11.12;10.23;;;;;;;20.12;100.00;99802.21;1680379;85;21059;-75
2022/08/06 00:32:17;;;;;;;22.25;11.28;;;;;;;20.12;100.00;99802.21;1668884;85;21110;-71
2022/08/06 00:34:44;;;;;;;14.23;10.23;;;;;;;20.17;100.00;99806.19;1640913;86;21621;-71
2022/08/06 00:37:11;;;;;;;11.75;9.63;;;;;;;20.19;100.00;99805.88;1706590;83;21003;-73
2022/08/06 00:39:38;;;;;;;9.63;8.50;;;;;;;20.20;100.00;99810.20;1711279;83;21031;-73
2022/08/06 00:42:05;;;;;;;10.78;9.88;;;;;;;20.24;100.00;99811.22;1710990;82;21062;-73
2022/08/06 00:44:33;;;;;;;12.78;11.45;;;;;;;20.22;100.00;99814.81;1655679;85;21092;-73
2022/08/06 00:47:00;;;;;;;15.35;11.50;;;;;;;20.10;100.00;99813.98;1644631;85;21114;-75
2022/08/06 00:49:28;;;;;;;11.88;10.82;;;;;;;19.95;100.00;99816.52;1672292;85;21094;-75
2022/08/06 00:51:56;;;;;;;12.70;11.45;;;;;;;19.84;100.00;99816.53;1672759;85;21030;-75
2022/08/06 00:54:23;;;;;;;12.15;10.93;;;;;;;19.76;100.00;99814.50;1655562;84;21052;-75
2022/08/06 00:56:51;;;;;;;10.78;9.88;;;;;;;19.77;100.00;99812.03;1655369;84;21080;-76
2022/08/06 00:59:18;;;;;;;12.33;10.18;;;;;;;19.81;100.00;99816.31;1652587;86;21684;-76
2022/08/06 01:01:45;;;;;;;14.05;10.68;;;;;;;19.78;100.00;99814.20;1676795;85;20975;-75
2022/08/06 01:04:12;;;;;;;11.00;9.95;;;;;;;19.76;100.00;99817.81;1676324;84;21059;-76
2022/08/06 01:06:39;;;;;;;12.25;9.43;;;;;;;19.77;100.00;99820.22;1678913;85;21091;-75
2022/08/06 01:09:07;;;;;;;14.13;11.00;;;;;;;19.81;100.00;99812.22;1679259;85;21577;-75
2022/08/06 01:11:34;;;;;;;11.57;10.58;;;;;;;19.77;100.00;99814.77;1679035;85;21262;-75
2022/08/06 01:14:02;;;;;;;15.60;11.40;;;;;;;19.71;100.00;99814.61;1679044;84;21066;-72
2022/08/06 01:16:40;;;;;;;10.98;9.83;;;;;;;19.75;100.00;99814.83;1655737;85;21323;-73
2022/08/06 01:19:45;;;;;;;10.30;9.48;;;;;;;19.79;100.00;99822.09;1662753;85;21050;-73
2022/08/06 01:22:43;;;;;;;15.53;10.60;;;;;;;19.85;100.00;99818.14;1698740;84;21085;-72
2022/08/06 01:25:51;;;;;;;13.35;10.65;;;;;;;19.87;100.00;99830.10;1707349;84;21402;-72
2022/08/06 01:28:28;;;;;;;10.15;9.15;;;;;;;19.92;100.00;99825.89;1727202;82;20974;-71
2022/08/06 01:31:09;;;;;;;11.57;10.53;;;;;;;19.98;100.00;99824.11;1721208;82;21098;-73
2022/08/06 01:33:40;;;;;;;10.58;9.50;;;;;;;19.93;100.00;99823.41;1711101;83;21023;-73
2022/08/06 01:36:11;;;;;;;12.20;10.28;;;;;;;19.93;100.00;99827.52;1711059;83;20978;-72
2022/08/06 01:38:42;;;;;;;11.33;10.25;;;;;;;19.93;100.00;99823.41;1711037;83;21144;-71
2022/08/06 01:41:11;;;;;;;11.25;10.20;;;;;;;19.90;100.00;99822.68;1711286;83;21198;-71
2022/08/06 01:43:41;;;;;;;12.28;10.68;;;;;;;19.92;100.00;99823.16;1711497;83;21011;-74
2022/08/06 01:46:08;;;;;;;10.50;9.60;;;;;;;19.94;100.00;99818.22;1710213;82;21111;-72
2022/08/06 01:48:35;;;;;;;16.52;10.63;;;;;;;20.00;100.00;99816.41;1710461;82;21524;-73
2022/08/06 01:51:02;;;;;;;11.57;10.18;;;;;;;19.99;100.00;99812.64;1711025;83;21204;-71
2022/08/06 01:53:34;;;;;;;10.38;9.33;;;;;;;20.04;100.00;99809.79;1712880;83;20972;-72
2022/08/06 01:56:02;;;;;;;10.43;9.25;;;;;;;20.13;100.00;99808.48;1711525;83;21083;-72
2022/08/06 01:58:36;;;;;;;11.00;10.08;;;;;;;20.10;100.00;99814.55;1710171;82;21023;-72
2022/08/06 02:01:07;;;;;;;11.03;9.98;;;;;;;20.11;100.00;99813.44;1711268;83;21074;-71
2022/08/06 02:03:47;;;;;;;11.30;10.30;;;;;;;20.12;100.00;99812.33;1711152;83;21530;-73
2022/08/06 02:06:19;;;;;;;11.80;10.68;;;;;;;20.10;100.00;99810.45;1711761;82;21150;-72
2022/08/06 02:08:45;;;;;;;13.35;12.15;;;;;;;20.06;100.00;99810.27;1711217;83;21039;-71
2022/08/06 02:11:12;;;;;;;14.70;12.95;;;;;;;19.84;100.00;99809.70;1711130;83;20972;-72
2022/08/06 02:13:40;;;;;;;15.93;11.45;;;;;;;19.66;100.00;99813.95;1711146;83;21051;-71
2022/08/06 02:16:08;;;;;;;12.88;11.68;;;;;;;19.53;100.00;99816.94;1711160;82;21305;-73
2022/08/06 02:18:42;;;;;;;15.03;13.50;;;;;;;19.40;100.00;99815.82;1711250;83;20971;-73
2022/08/06 02:21:14;;;;;;;14.90;13.38;;;;;;;19.30;100.00;99817.39;1711446;83;21513;-73
2022/08/06 02:23:41;;;;;;;12.73;11.68;;;;;;;19.21;100.00;99820.58;1711070;83;20948;-74
2022/08/06 02:26:08;;;;;;;14.28;12.03;;;;;;;19.15;100.00;99824.52;1712078;82;21368;-73
2022/08/06 02:28:34;;;;;;;22.87;12.37;;;;;;;19.10;100.00;99825.97;1706120;83;21763;-73
2022/08/06 02:31:03;;;;;;;17.67;15.13;;;;;;;19.09;100.00;99832.53;1711257;83;20991;-73
2022/08/06 02:33:29;;;;;;;13.88;12.50;;;;;;;19.06;100.00;99836.69;1711572;83;21059;-73
2022/08/06 02:36:38;;;;;;;14.68;13.18;;;;;;;19.03;100.00;99836.48;1711096;82;21035;-74
2022/08/06 02:39:32;;;;;;;15.13;13.70;;;;;;;19.01;100.00;99835.97;1710626;83;21008;-74
2022/08/06 02:42:07;;;;;;;14.98;13.65;;;;;;;19.00;100.00;99837.07;1711300;83;21165;-75
2022/08/06 02:44:49;;;;;;;15.50;13.25;;;;;;;18.94;100.00;99832.30;1711122;83;21117;-73
2022/08/06 02:47:42;;;;;;;16.50;13.58;;;;;;;18.91;100.00;99842.42;1699600;82;21012;-74
2022/08/06 02:50:09;;;;;;;;;;;;;;;18.84;100.00;99839.30;1713822;83;21079;-73
2022/08/06 02:52:49;;;;;;;14.83;13.03;;;;;;;18.86;100.00;99841.70;1711354;83;20421;-73
2022/08/06 02:55:18;;;;;;;12.33;11.12;;;;;;;18.84;100.00;99842.58;1705923;83;21164;-72
2022/08/06 02:57:51;;;;;;;15.53;14.03;;;;;;;18.90;100.00;99850.33;1705907;82;21163;-74
2022/08/06 03:00:18;;;;;;;14.15;12.65;;;;;;;18.89;100.00;99852.02;1712364;83;21971;-74
2022/08/06 03:02:46;;;;;;;13.10;12.00;;;;;;;18.89;100.00;99849.30;1711256;82;21612;-72
2022/08/06 03:05:18;;;;;;;13.90;12.50;;;;;;;18.93;100.00;99850.30;1708605;83;20996;-74
2022/08/06 03:07:45;;;;;;;14.80;13.32;;;;;;;18.95;100.00;99844.79;1700818;83;21909;-73
2022/08/06 03:10:13;;;;;;;15.28;13.72;;;;;;;18.99;100.00;99851.25;1711184;83;21048;-72
2022/08/06 03:12:42;;;;;;;18.02;13.38;;;;;;;18.99;100.00;99851.25;1711033;83;21043;-73
2022/08/06 03:15:09;;;;;;;14.03;12.78;;;;;;;19.00;100.00;99854.79;1710345;83;21051;-73
2022/08/06 03:17:39;;;;;;;14.15;12.85;;;;;;;19.04;100.00;99857.97;1700860;82;20980;-72
2022/08/06 03:20:07;;;;;;;13.95;12.33;;;;;;;19.14;100.00;99860.51;1683808;83;21439;-72
2022/08/06 03:22:37;;;;;;;12.60;11.53;;;;;;;19.14;100.00;99860.51;1684156;85;20967;-72
2022/08/06 03:25:08;;;;;;;18.45;12.20;;;;;;;19.20;100.00;99858.50;1680450;85;20991;-72
2022/08/06 03:27:37;;;;;;;11.75;10.70;;;;;;;19.25;100.00;99863.05;1712680;82;21019;-73
2022/08/06 03:30:06;;;;;;;14.53;13.03;;;;;;;19.28;100.00;99864.60;1711201;83;20992;-72
2022/08/06 03:32:33;;;;;;;14.98;11.90;;;;;;;19.32;100.00;99864.83;1689140;83;21238;-73
2022/08/06 03:35:02;;;;;;;13.60;12.25;;;;;;;19.42;100.00;99868.72;1711212;83;21055;-72
2022/08/06 03:37:28;;;;;;;14.95;13.25;;;;;;;19.44;100.00;99874.14;1678076;83;21041;-72
2022/08/06 03:39:55;;;;;;;17.27;13.50;;;;;;;19.41;100.00;99876.64;1690345;83;21548;-72
2022/08/06 03:42:22;;;;;;;15.38;12.58;;;;;;;19.35;100.00;99879.21;1689238;83;21009;-73
2022/08/06 03:44:50;;;;;;;14.53;13.22;;;;;;;19.31;100.00;99880.38;1712937;83;22188;-73
2022/08/06 03:47:25;;;;;;;13.50;12.10;;;;;;;19.25;100.00;99884.31;1699612;82;20976;-72
2022/08/06 03:50:03;;;;;;;14.30;12.60;;;;;;;19.24;100.00;99889.50;1709972;82;21520;-73
2022/08/06 03:52:31;;;;;;;11.93;10.93;;;;;;;19.28;100.00;99884.27;1682538;85;21095;-71
2022/08/06 03:55:04;;;;;;;13.15;11.95;;;;;;;19.37;100.00;99892.00;1696645;83;21050;-74
2022/08/06 03:57:38;;;;;;;13.40;11.23;;;;;;;19.41;100.00;99891.64;1656452;84;22103;-73
2022/08/06 04:00:08;;;;;;;13.20;11.78;;;;;;;19.49;100.00;99893.69;1657750;85;21019;-72
2022/08/06 04:02:47;;;;;;;15.25;13.85;;;;;;;19.55;100.00;99895.20;1658943;85;21107;-73
2022/08/06 04:05:22;;;;;;;17.57;14.45;;;;;;;19.56;100.00;99891.38;1679016;85;21031;-73
2022/08/06 04:07:51;;;;;;;14.58;13.08;;;;;;;19.54;100.00;99897.13;1696225;83;21500;-74
2022/08/06 04:10:18;;;;;;;16.50;15.10;;;;;;;19.55;100.00;99896.02;1710246;82;21346;-74
2022/08/06 04:12:45;;;;;;;16.55;14.25;;;;;;;19.56;100.00;99894.91;1701232;82;21552;-74
2022/08/06 04:15:13;;;;;;;15.48;13.90;;;;;;;19.58;100.00;99896.77;1707140;83;20963;-73
2022/08/06 04:17:42;;;;;;;15.10;13.48;;;;;;;19.62;100.00;99890.14;1693041;83;21051;-71
2022/08/06 04:20:11;;;;;;;14.23;12.73;;;;;;;19.71;100.00;99892.98;1711265;83;21008;-74
2022/08/06 04:22:37;;;;;;;15.90;14.30;;;;;;;19.75;100.00;99896.16;1682771;85;21893;-72
2022/08/06 04:25:06;;;;;;;13.32;11.60;;;;;;;19.83;100.00;99897.34;1689432;83;20908;-73
2022/08/06 04:27:32;;;;;;;16.17;12.28;;;;;;;19.91;100.00;99904.25;1711284;83;21083;-72
2022/08/06 04:29:59;;;;;;;16.48;13.53;;;;;;;19.98;100.00;99902.48;1712114;82;20959;-72
2022/08/06 04:32:26;;;;;;;13.70;12.40;;;;;;;20.05;100.00;99906.95;1711621;83;21079;-72
2022/08/06 04:34:53;;;;;;;15.30;13.15;;;;;;;20.16;100.00;99913.81;1710753;83;21837;-71
2022/08/06 04:37:20;;;;;;;13.15;11.95;;;;;;;20.25;100.00;99910.59;1711227;83;21020;-72
2022/08/06 04:39:46;;;;;;;14.98;13.45;;;;;;;20.35;100.00;99907.66;1711544;83;21116;-70
2022/08/06 04:42:14;;;;;;;19.40;12.10;;;;;;;20.44;100.00;99907.72;1711370;83;20971;-70
2022/08/06 04:44:41;;;;;;;17.32;12.75;;;;;;;20.54;100.00;99908.04;1709586;82;21505;-71
2022/08/06 04:47:08;;;;;;;14.07;12.75;;;;;;;20.60;100.00;99913.64;1711020;83;21152;-71
2022/08/06 04:49:35;;;;;;;13.43;12.25;;;;;;;20.66;100.00;99916.50;1711208;82;21085;-73
2022/08/06 04:52:02;;;;;;;15.25;12.40;;;;;;;20.76;100.00;99910.78;1711380;83;20935;-72
2022/08/06 04:54:29;;;;;;;14.25;13.00;;;;;;;20.87;100.00;99911.56;1711183;83;21027;-71
2022/08/06 04:56:56;;;;;;;13.85;12.55;;;;;;;20.95;100.00;99908.66;1711298;83;21517;-73
2022/08/06 04:59:23;;;;;;;14.50;12.95;;;;;;;21.05;100.00;99902.92;1711084;83;21071;-72
2022/08/06 05:01:49;;;;;;;15.58;14.07;;;;;;;21.09;100.00;99907.20;1711607;83;21501;-71
2022/08/06 05:04:18;;;;;;;13.28;12.07;;;;;;;21.19;100.00;99910.50;1710833;82;21080;-71
2022/08/06 05:06:50;;;;;;;15.78;14.25;;;;;;;21.27;100.00;99910.28;1712854;82;21115;-71
2022/08/06 05:09:25;;;;;;;18.17;14.73;;;;;;;21.29;100.00;99913.53;1711243;82;20939;-71
2022/08/06 05:12:04;;;;;;;17.02;12.90;;;;;;;21.35;100.00;99916.91;1711261;83;21778;-73
2022/08/06 05:14:43;;;;;;;19.30;13.70;;;;;;;21.39;100.00;99915.95;1712261;83;21529;-72
2022/08/06 05:17:12;;;;;;;16.20;14.45;;;;;;;21.49;100.00;99910.20;1711313;83;21043;-73
2022/08/06 05:19:47;;;;;;;49.90;37.70;;;;;;;21.52;99.81;99909.59;1711348;83;21031;-75
2022/08/06 05:22:16;;;;;;;22.80;18.82;;;;;;;21.57;99.35;99910.01;1713149;82;21046;-71
2022/08/06 05:24:43;;;;;;;23.22;15.25;;;;;;;21.61;98.92;99913.16;1682888;83;21392;-73
2022/08/06 05:27:10;;;;;;;15.13;13.62;;;;;;;21.62;98.51;99910.67;1698570;82;20948;-73
2022/08/06 05:29:40;;;;;;;15.70;14.10;;;;;;;21.61;97.89;99904.95;1711189;83;21016;-73
2022/08/06 05:32:06;;;;;;;14.25;12.98;;;;;;;21.62;98.05;99908.50;1711199;83;21585;-73
2022/08/06 05:34:34;;;;;;;14.78;13.22;;;;;;;21.68;98.01;99906.64;1708967;83;21090;-71
2022/08/06 05:37:01;;;;;;;15.80;14.20;;;;;;;21.78;97.51;99909.64;1678992;85;21445;-72
2022/08/06 05:39:28;;;;;;;15.72;14.23;;;;;;;21.83;97.01;99904.58;1657484;85;21051;-72
2022/08/06 05:41:55;;;;;;;15.53;14.00;;;;;;;21.92;96.99;99906.21;1695382;83;20963;-71
2022/08/06 05:44:24;;;;;;;22.22;14.05;;;;;;;21.99;95.97;99904.41;1711140;82;21000;-71
2022/08/06 05:46:53;;;;;;;17.25;14.40;;;;;;;22.00;95.64;99902.73;1680028;83;21068;-70
2022/08/06 05:49:27;;;;;;;15.23;13.53;;;;;;;22.05;95.79;99903.95;1678769;85;21134;-72
2022/08/06 05:52:07;;;;;;;14.98;13.28;;;;;;;22.11;95.22;99910.86;1678892;85;21035;-73
2022/08/06 05:54:47;;;;;;;17.52;15.50;;;;;;;22.14;95.07;99906.69;1680835;85;21098;-70
2022/08/06 05:57:37;;;;;;;39.98;21.02;;;;;;;22.26;94.76;99911.52;1673279;84;21005;-71
2022/08/06 06:00:10;;;;;;;29.70;17.77;;;;;;;22.16;93.35;99907.16;1644589;86;21077;-71
2022/08/06 06:02:41;;;;;;;25.40;17.80;;;;;;;22.16;93.79;99903.05;1706425;83;21148;-71
2022/08/06 06:05:08;;;;;;;37.50;29.05;;;;;;;22.17;93.77;99904.11;1666707;83;21083;-72
2022/08/06 06:07:37;;;;;;;18.27;16.02;;;;;;;22.22;93.96;99901.77;1680456;83;21028;-71
2022/08/06 06:10:06;;;;;;;16.60;14.90;;;;;;;22.26;93.55;99910.95;1678885;85;20976;-71
2022/08/06 06:12:35;;;;;;;21.20;15.98;;;;;;;22.29;93.61;99906.78;1656118;85;21036;-70
2022/08/06 06:15:04;;;;;;;15.55;13.90;;;;;;;22.34;93.22;99909.36;1678382;85;21224;-73
2022/08/06 06:18:21;;;;;;;19.23;14.90;;;;;;;22.41;93.04;99911.04;1660005;85;20987;-71
2022/08/06 06:21:06;;;;;;;16.57;14.80;;;;;;;22.51;92.81;99914.83;1675268;84;21546;-71
2022/08/06 06:23:44;;;;;;;20.50;15.10;;;;;;;22.66;91.91;99908.85;1676371;85;21064;-71
2022/08/06 06:26:35;;;;;;;17.02;13.83;;;;;;;22.69;91.63;99903.27;1667498;85;21073;-73
2022/08/06 06:29:27;;;;;;;17.48;13.98;;;;;;;22.72;91.31;99907.59;1651187;85;21254;-72
2022/08/06 06:32:12;;;;;;;20.95;18.50;;;;;;;22.80;90.87;99903.21;1678797;85;21036;-71
2022/08/06 06:34:53;;;;;;;15.58;14.05;;;;;;;22.95;90.78;99904.07;1686487;82;21047;-72
2022/08/06 06:37:43;;;;;;;16.30;14.83;;;;;;;23.08;89.76;99905.80;1711574;82;21365;-72
2022/08/06 06:40:32;;;;;;;18.98;17.15;;;;;;;23.14;89.15;99898.20;1691932;83;21096;-72
2022/08/06 06:43:25;;;;;;;17.42;15.48;;;;;;;23.19;87.94;99896.09;1711127;83;21168;-72
2022/08/06 06:46:02;;;;;;;17.35;14.33;;;;;;;23.27;87.54;99893.06;1682640;82;21528;-70
2022/08/06 06:48:52;;;;;;;13.90;12.60;;;;;;;23.36;86.91;99897.38;1688426;83;21067;-70
2022/08/06 06:51:29;;;;;;;15.68;14.28;;;;;;;23.45;86.04;99894.05;1682201;85;21077;-72
2022/08/06 06:53:56;;;;;;;16.27;14.40;;;;;;;23.51;85.14;99887.01;1679253;85;21053;-71
2022/08/06 06:56:30;;;;;;;16.75;13.15;;;;;;;23.59;84.89;99888.36;1659556;83;21019;-71
2022/08/06 06:59:11;;;;;;;22.25;16.75;;;;;;;23.66;84.85;99892.75;1691842;83;21025;-70
2022/08/06 07:01:37;;;;;;;14.47;13.22;;;;;;;23.76;84.63;99892.94;1698452;83;20984;-71
2022/08/06 07:04:08;;;;;;;15.70;14.07;;;;;;;23.88;83.98;99893.03;1702860;83;21032;-70
2022/08/06 07:06:36;;;;;;;14.68;12.73;;;;;;;23.95;82.95;99898.80;1711697;83;21102;-75
2022/08/06 07:09:03;;;;;;;14.35;13.05;;;;;;;24.01;81.84;99893.91;1711465;83;22232;-75
2022/08/06 07:11:30;;;;;;;15.38;14.03;;;;;;;24.08;81.62;99887.30;1712541;83;22399;-73
2022/08/06 07:13:58;;;;;;;16.05;13.03;;;;;;;24.16;81.52;99881.78;1711675;83;21056;-73
2022/08/06 07:16:26;;;;;;;20.00;13.95;;;;;;;24.26;80.76;99883.33;1701460;83;22247;-72
2022/08/06 07:18:53;;;;;;;15.08;13.48;;;;;;;24.33;80.26;99884.95;1682986;85;21087;-75
2022/08/06 07:21:21;;;;;;;16.37;13.78;;;;;;;24.35;79.42;99882.68;1679835;85;21198;-75
2022/08/06 07:23:51;;;;;;;18.17;15.00;;;;;;;24.40;79.49;99885.80;1680319;85;21056;-75
2022/08/06 07:26:23;;;;;;;15.53;13.90;;;;;;;24.46;79.23;99888.58;1688598;82;21162;-73
2022/08/06 07:28:51;;;;;;;21.07;13.50;;;;;;;24.53;78.94;99884.13;1687110;83;21044;-75
2022/08/06 07:31:18;;;;;;;15.10;13.60;;;;;;;24.57;78.86;99880.13;1725526;82;21147;-75
2022/08/06 07:33:45;;;;;;;14.95;13.38;;;;;;;24.62;78.39;99881.29;1738141;82;21119;-75
2022/08/06 07:36:16;;;;;;;15.88;12.58;;;;;;;24.68;78.28;99875.81;1714384;82;20999;-74
2022/08/06 07:38:44;;;;;;;22.58;20.32;;;;;;;24.76;78.09;99883.16;1686182;82;21324;-78
2022/08/06 07:41:11;;;;;;;15.23;13.80;;;;;;;24.84;76.92;99883.67;1716008;82;21047;-75
2022/08/06 07:43:54;;;;;;;14.18;12.93;;;;;;;24.92;76.17;99879.23;1715082;83;20999;-74
2022/08/06 07:46:23;;;;;;;16.27;14.70;;;;;;;25.03;75.67;99883.98;1709052;81;21110;-74
2022/08/06 07:48:55;;;;;;;17.35;15.70;;;;;;;25.11;75.05;99889.94;1717644;83;20999;-76
2022/08/06 07:51:25;;;;;;;16.12;12.98;;;;;;;25.14;75.22;99892.00;1711335;82;21102;-76
2022/08/06 07:53:52;;;;;;;16.87;15.18;;;;;;;25.15;75.44;99884.55;1715287;81;21098;-73
2022/08/06 07:56:19;;;;;;;14.83;13.60;;;;;;;25.13;75.32;99886.86;1694334;82;21070;-75
2022/08/06 07:58:45;;;;;;;15.60;14.28;;;;;;;25.14;75.64;99894.75;1718085;81;21094;-74
2022/08/06 08:01:12;;;;;;;17.23;14.78;;;;;;;25.17;75.55;99894.09;1725030;81;21038;-74
2022/08/06 08:06:26;;;;;;;15.53;14.18;;;;;;;25.33;76.37;99887.89;1717711;82;21118;-74
2022/08/06 08:09:06;;;;;;;14.87;13.35;;;;;;;25.41;75.65;99889.75;1721718;82;20992;-74
2022/08/06 08:11:33;;;;;;;12.80;11.48;;;;;;;25.48;75.63;99884.45;1710032;82;21175;-73
2022/08/06 08:14:01;;;;;;;12.82;11.68;;;;;;;25.58;74.81;99874.39;1692465;83;21037;-73
2022/08/06 08:16:28;;;;;;;16.55;11.55;;;;;;;25.64;73.84;99874.39;1711850;82;21011;-75
2022/08/06 08:18:57;;;;;;;15.30;11.97;;;;;;;25.74;73.66;99879.44;1710919;83;21726;-74
2022/08/06 08:21:23;;;;;;;14.05;12.80;;;;;;;25.83;73.39;99874.59;1711535;82;21054;-73
2022/08/06 08:23:50;;;;;;;13.83;12.63;;;;;;;25.89;73.62;99874.59;1709803;83;21024;-72
2022/08/06 08:26:16;;;;;;;12.98;11.88;;;;;;;25.89;71.23;99879.30;1711171;83;21512;-73
2022/08/06 08:28:43;;;;;;;13.43;12.23;;;;;;;25.89;71.06;99877.35;1710002;82;20992;-75
2022/08/06 08:31:13;;;;;;;13.35;12.20;;;;;;;25.90;71.23;99874.02;1711357;83;21086;-73
2022/08/06 08:33:40;;;;;;;14.33;13.00;;;;;;;25.95;71.34;99875.14;1713226;82;21517;-77
2022/08/06 08:36:08;;;;;;;14.90;13.53;;;;;;;26.00;72.30;99877.08;1711204;83;21099;-73
2022/08/06 08:38:35;;;;;;;14.53;13.13;;;;;;;26.08;73.14;99871.80;1689624;82;21108;-72
2022/08/06 08:41:07;;;;;;;12.47;11.28;;;;;;;26.16;72.64;99873.59;1709282;82;20996;-72
2022/08/06 08:43:41;;;;;;;19.80;12.78;;;;;;;26.23;70.36;99870.52;1711544;82;21094;-75
2022/08/06 08:46:08;;;;;;;12.35;11.15;;;;;;;26.27;70.60;99867.86;1716025;82;21043;-73
2022/08/06 08:48:35;;;;;;;11.73;10.72;;;;;;;26.31;69.22;99866.80;1709975;82;21153;-73
2022/08/06 08:51:02;;;;;;;11.38;9.85;;;;;;;26.34;68.00;99866.67;1692923;82;21537;-73
2022/08/06 08:53:37;;;;;;;10.35;9.55;;;;;;;26.42;68.01;99874.82;1678906;85;20979;-72
2022/08/06 08:56:05;;;;;;;12.23;11.00;;;;;;;26.51;68.20;99872.48;1675555;83;21074;-70
2022/08/06 08:58:36;;;;;;;11.85;10.35;;;;;;;26.57;67.53;99873.23;1694515;83;21007;-72
2022/08/06 09:01:00;;;;;;;13.55;11.65;;;;;;;26.60;67.17;99868.98;1687510;84;22331;-73
2022/08/06 09:03:27;;;;;;;15.78;12.47;;;;;;;26.66;67.59;99867.58;1710954;83;20980;-72
2022/08/06 09:05:53;;;;;;;12.68;11.38;;;;;;;26.71;68.10;99868.13;1711281;83;21011;-73
2022/08/06 09:08:22;;;;;;;11.57;10.60;;;;;;;26.78;67.29;99866.13;1718448;82;21067;-72
2022/08/06 09:10:49;;;;;;;10.80;9.80;;;;;;;26.76;66.08;99857.41;1712653;82;21166;-74
2022/08/06 09:13:16;;;;;;;14.07;10.58;;;;;;;26.74;64.79;99867.98;1711241;83;21692;-72
2022/08/06 09:15:43;;;;;;;12.37;11.22;;;;;;;26.61;64.98;99867.27;1705085;82;21031;-70
2022/08/06 09:18:11;;;;;;;12.07;10.98;;;;;;;26.59;66.27;99864.03;1705395;82;21035;-69
2022/08/06 09:20:39;;;;;;;12.00;10.90;;;;;;;26.61;67.48;99864.50;1691576;83;21068;-76
2022/08/06 09:23:07;;;;;;;12.70;10.90;;;;;;;26.66;66.30;99863.44;1681304;85;21164;-71
2022/08/06 09:25:47;;;;;;;13.03;10.13;;;;;;;26.74;65.99;99872.13;1709643;83;21261;-79
2022/08/06 09:28:36;;;;;;;11.95;10.95;;;;;;;26.81;65.72;99866.81;1708970;82;20963;-78
2022/08/06 09:31:17;;;;;;;11.20;10.10;;;;;;;26.88;65.70;99875.30;1711012;82;21059;-75
2022/08/06 09:34:00;;;;;;;9.68;8.90;;;;;;;26.99;64.96;99867.30;1710967;83;20975;-74
2022/08/06 09:36:27;;;;;;;9.75;8.80;;;;;;;27.19;62.87;99869.02;1711357;83;21323;-75
2022/08/06 09:38:57;;;;;;;10.05;9.15;;;;;;;27.35;61.88;99871.17;1711054;83;21240;-79
2022/08/06 09:41:27;;;;;;;10.08;9.15;;;;;;;27.43;60.14;99874.34;1711085;83;20944;-77
2022/08/06 09:43:55;;;;;;;9.85;8.35;;;;;;;27.42;60.67;99867.22;1709675;82;21595;-77
2022/08/06 09:46:44;;;;;;;12.78;8.23;;;;;;;27.54;59.99;99880.14;1711249;82;21481;-72
2022/08/06 09:49:12;;;;;;;8.73;7.03;;;;;;;27.70;58.37;99874.02;1711405;82;21572;-73
2022/08/06 09:51:40;;;;;;;7.83;7.08;;;;;;;27.90;56.71;99874.86;1712405;82;21513;-76
2022/08/06 09:54:09;;;;;;;8.45;7.75;;;;;;;27.95;54.83;99874.01;1688463;83;21532;-75
2022/08/06 09:56:37;;;;;;;7.83;7.22;;;;;;;27.91;55.00;99875.09;1691271;83;21059;-74
2022/08/06 09:59:06;;;;;;;8.70;6.95;;;;;;;27.92;55.29;99876.67;1702266;83;21112;-74
2022/08/06 10:01:46;;;;;;;7.70;7.03;;;;;;;27.95;54.23;99875.39;1683815;83;21517;-74
2022/08/06 10:04:24;;;;;;;7.53;6.90;;;;;;;27.94;55.02;99877.13;1706970;82;21261;-76
2022/08/06 10:06:59;;;;;;;7.70;6.95;;;;;;;28.03;54.18;99870.23;1710326;82;21014;-75
2022/08/06 10:09:28;;;;;;;9.25;7.70;;;;;;;28.14;54.13;99873.26;1710392;82;20991;-73
2022/08/06 10:11:55;;;;;;;7.53;6.92;;;;;;;28.24;53.92;99871.30;1709241;82;21075;-73
2022/08/06 10:14:32;;;;;;;7.17;6.53;;;;;;;28.32;54.17;99874.42;1710412;83;21119;-75
2022/08/06 10:17:15;;;;;;;7.70;7.03;;;;;;;28.43;53.86;99877.42;1704863;82;21252;-74
2022/08/06 10:19:44;;;;;;;13.08;6.80;;;;;;;28.48;52.17;99872.39;1711451;83;21028;-74
2022/08/06 10:22:16;;;;;;;7.72;6.83;;;;;;;28.56;52.56;99871.36;1711714;82;21440;-76
2022/08/06 10:24:48;;;;;;;7.33;6.17;;;;;;;28.71;52.88;99870.25;1711774;83;21030;-74
2022/08/06 10:27:22;;;;;;;7.67;6.90;;;;;;;28.81;52.72;99875.22;1689354;83;36834;-74
2022/08/06 10:29:54;;;;;;;9.70;6.55;;;;;;;28.94;51.87;99874.67;1710564;82;21135;-73
2022/08/06 10:32:45;;;;;;;7.70;7.10;;;;;;;29.06;51.24;99859.05;1696621;83;20971;-75
2022/08/06 10:35:12;;;;;;;7.00;6.08;;;;;;;29.09;51.02;99872.16;1681508;83;21040;-74
2022/08/06 10:37:41;;;;;;;9.05;7.60;;;;;;;29.08;51.55;99871.93;1708458;83;21071;-73
2022/08/06 10:40:09;;;;;;;8.83;7.35;;;;;;;29.04;50.90;99872.68;1709273;82;20988;-75
2022/08/06 10:42:38;;;;;;;7.45;6.75;;;;;;;28.90;51.51;99864.70;1709734;83;21237;-76
2022/08/06 10:45:05;;;;;;;7.83;7.12;;;;;;;28.90;52.07;99864.12;1699850;84;21060;-72
2022/08/06 10:47:34;;;;;;;8.25;7.55;;;;;;;29.07;51.66;99870.32;1697760;83;21024;-79
2022/08/06 10:50:01;;;;;;;8.90;6.45;;;;;;;29.18;49.89;99880.44;1704598;83;21068;-75
2022/08/06 10:52:29;;;;;;;7.70;6.87;;;;;;;29.26;50.29;99869.67;1711219;83;21039;-75
2022/08/06 10:54:56;;;;;;;7.58;6.83;;;;;;;29.41;50.11;99863.81;1711070;83;21403;-75
2022/08/06 10:57:23;;;;;;;8.00;7.28;;;;;;;29.56;49.67;99865.64;1707451;83;20988;-75
2022/08/06 10:59:50;;;;;;;7.90;7.17;;;;;;;29.67;49.36;99863.03;1706114;83;20936;-73
2022/08/06 11:02:39;;;;;;;7.00;6.40;;;;;;;29.83;49.23;99858.13;1708368;83;21013;-77
2022/08/06 11:05:11;;;;;;;9.38;6.65;;;;;;;29.93;48.44;99857.48;1682450;83;21095;-74
2022/08/06 11:08:11;;;;;;;7.90;7.20;;;;;;;29.81;48.22;99858.49;1690284;83;21438;-74
2022/08/06 11:11:00;;;;;;;11.63;9.25;;;;;;;29.60;49.37;99857.37;1712256;82;21017;-75
2022/08/06 11:13:33;;;;;;;9.60;7.75;;;;;;;29.57;49.16;99853.97;1705899;82;21067;-75
2022/08/06 11:16:00;;;;;;;10.43;6.78;;;;;;;29.58;49.81;99848.06;1692569;83;21493;-74
2022/08/06 11:18:26;;;;;;;9.15;6.30;;;;;;;29.72;49.87;99844.11;1709686;84;21071;-75
2022/08/06 11:20:54;;;;;;;8.85;7.10;;;;;;;29.81;49.62;99843.83;1710778;83;21238;-75
2022/08/06 11:23:29;;;;;;;10.03;7.03;;;;;;;29.88;49.19;99846.13;1710939;83;21102;-74
2022/08/06 11:25:59;;;;;;;7.45;6.75;;;;;;;29.94;48.68;99841.64;1709834;82;21501;-74
2022/08/06 11:28:36;;;;;;;12.00;7.28;;;;;;;29.99;48.23;99849.05;1709946;82;20979;-75
2022/08/06 11:31:06;;;;;;;8.70;7.83;;;;;;;30.02;48.84;99845.55;1711403;83;21054;-76
2022/08/06 11:33:38;;;;;;;6.70;6.10;;;;;;;30.13;47.95;99842.88;1711139;83;21226;-75
2022/08/06 11:36:12;;;;;;;5.77;5.13;;;;;;;30.27;47.05;99836.92;1710430;82;21110;-74
2022/08/06 11:38:56;;;;;;;6.87;6.37;;;;;;;30.36;45.99;99847.73;1712584;82;21327;-76